sensor_id;sensor_type;location;lat;lon;timestamp;pressure;altitude;pressure_sealevel;temperature;humidity
53023;BME280;38913;44.338;11.206;2023-04-10T00:02:19;100660.97;;;9.61;nan
53023;BME280;38913;44.338;11.206;2023-04-10T00:04:45;100665.97;;;9.77;nan
53023;BME280;38913;44.338;11.206;2023-04-10T00:07:11;100662.72;;;9.54;nan
53023;BME280;38913;44.338;11.206;2023-04-10T00:09:36;100661.16;;;9.59;nan
53023;BME280;38913;44.338;11.206;2023-04-10T00:12:02;100658.41;;;9.68;nan
53023;BME280;38913;44.338;11.206;2023-04-10T00:14:27;100665.00;;;9.78;nan
53023;BME280;38913;44.338;11.206;2023-04-10T00:16:53;100651.16;;;9.48;nan
53023;BME280;38913;44.338;11.206;2023-04-10T00:19:18;100658.91;;;9.56;nan
53023;BME280;38913;44.338;11.206;2023-04-10T00:21:43;100662.44;;;9.63;nan
53023;BME280;38913;44.338;11.206;2023-04-10T00:24:09;100662.78;;;9.60;nan
53023;BME280;38913;44.338;11.206;2023-04-10T00:26:35;100651.34;;;9.31;nan
53023;BME280;38913;44.338;11.206;2023-04-10T00:29:01;100632.94;;;8.79;nan
53023;BME280;38913;44.338;11.206;2023-04-10T00:31:26;100640.63;;;8.81;nan
53023;BME280;38913;44.338;11.206;2023-04-10T00:33:52;100641.78;;;9.23;nan
53023;BME280;38913;44.338;11.206;2023-04-10T00:36:18;100640.38;;;9.28;nan
53023;BME280;38913;44.338;11.206;2023-04-10T00:38:43;100647.84;;;9.24;nan
53023;BME280;38913;44.338;11.206;2023-04-10T00:41:09;100646.69;;;9.48;nan
53023;BME280;38913;44.338;11.206;2023-04-10T00:43:35;100643.31;;;9.18;nan
53023;BME280;38913;44.338;11.206;2023-04-10T00:46:00;100644.44;;;9.45;nan
53023;BME280;38913;44.338;11.206;2023-04-10T00:48:26;100648.25;;;9.43;nan
53023;BME280;38913;44.338;11.206;2023-04-10T00:50:51;100646.69;;;9.48;nan
53023;BME280;38913;44.338;11.206;2023-04-10T00:53:17;100645.00;;;9.41;nan
53023;BME280;38913;44.338;11.206;2023-04-10T00:55:43;100650.94;;;9.49;nan
53023;BME280;38913;44.338;11.206;2023-04-10T00:58:08;100653.22;;;9.53;nan
53023;BME280;38913;44.338;11.206;2023-04-10T01:00:39;100657.44;;;9.32;nan
53023;BME280;38913;44.338;11.206;2023-04-10T01:03:05;100651.13;;;8.96;nan
53023;BME280;38913;44.338;11.206;2023-04-10T01:05:34;100659.88;;;9.33;nan
53023;BME280;38913;44.338;11.206;2023-04-10T01:10:45;100654.28;;;9.06;nan
53023;BME280;38913;44.338;11.206;2023-04-10T01:13:21;100660.53;;;9.20;nan
53023;BME280;38913;44.338;11.206;2023-04-10T01:16:00;100655.66;;;9.17;nan
53023;BME280;38913;44.338;11.206;2023-04-10T01:21:04;100646.41;;;9.06;nan
53023;BME280;38913;44.338;11.206;2023-04-10T01:26:11;100632.75;;;8.96;nan
53023;BME280;38913;44.338;11.206;2023-04-10T01:34:03;100632.13;;;8.64;nan
53023;BME280;38913;44.338;11.206;2023-04-10T01:36:39;100639.88;;;8.42;nan
53023;BME280;38913;44.338;11.206;2023-04-10T01:39:11;100629.97;;;8.44;nan
53023;BME280;38913;44.338;11.206;2023-04-10T01:41:40;100637.25;;;8.42;nan
53023;BME280;38913;44.338;11.206;2023-04-10T01:44:06;100635.03;;;8.31;nan
53023;BME280;38913;44.338;11.206;2023-04-10T01:46:32;100628.41;;;8.20;nan
53023;BME280;38913;44.338;11.206;2023-04-10T01:49:00;100626.63;;;8.50;nan
53023;BME280;38913;44.338;11.206;2023-04-10T01:51:26;100629.50;;;8.79;nan
53023;BME280;38913;44.338;11.206;2023-04-10T01:53:53;100619.69;;;8.42;nan
53023;BME280;38913;44.338;11.206;2023-04-10T01:56:20;100613.28;;;8.75;nan
53023;BME280;38913;44.338;11.206;2023-04-10T01:58:46;100592.91;;;8.09;nan
53023;BME280;38913;44.338;11.206;2023-04-10T02:01:17;100597.81;;;7.73;nan
53023;BME280;38913;44.338;11.206;2023-04-10T02:03:43;100603.97;;;7.81;nan
53023;BME280;38913;44.338;11.206;2023-04-10T02:06:21;100599.84;;;7.63;nan
53023;BME280;38913;44.338;11.206;2023-04-10T02:09:04;100579.97;;;7.45;nan
53023;BME280;38913;44.338;11.206;2023-04-10T02:12:00;100583.31;;;7.63;nan
53023;BME280;38913;44.338;11.206;2023-04-10T02:14:27;100591.25;;;7.93;nan
53023;BME280;38913;44.338;11.206;2023-04-10T02:16:55;100593.72;;;7.94;nan
53023;BME280;38913;44.338;11.206;2023-04-10T02:19:23;100597.97;;;7.72;nan
53023;BME280;38913;44.338;11.206;2023-04-10T02:21:50;100602.75;;;7.92;nan
53023;BME280;38913;44.338;11.206;2023-04-10T02:24:16;100606.91;;;7.86;nan
53023;BME280;38913;44.338;11.206;2023-04-10T02:26:46;100588.13;;;6.96;nan
53023;BME280;38913;44.338;11.206;2023-04-10T02:29:13;100562.47;;;7.14;nan
53023;BME280;38913;44.338;11.206;2023-04-10T02:31:42;100559.91;;;7.06;nan
53023;BME280;38913;44.338;11.206;2023-04-10T02:34:08;100573.50;;;7.33;nan
53023;BME280;38913;44.338;11.206;2023-04-10T02:36:35;100580.50;;;7.17;nan
53023;BME280;38913;44.338;11.206;2023-04-10T02:39:00;100590.16;;;7.40;nan
53023;BME280;38913;44.338;11.206;2023-04-10T02:41:26;100582.50;;;7.07;nan
53023;BME280;38913;44.338;11.206;2023-04-10T02:43:51;100586.53;;;6.86;nan
53023;BME280;38913;44.338;11.206;2023-04-10T02:46:16;100580.75;;;6.99;nan
53023;BME280;38913;44.338;11.206;2023-04-10T02:48:42;100588.78;;;6.98;nan
53023;BME280;38913;44.338;11.206;2023-04-10T02:51:07;100588.00;;;6.89;nan
53023;BME280;38913;44.338;11.206;2023-04-10T02:53:33;100596.78;;;6.96;nan
53023;BME280;38913;44.338;11.206;2023-04-10T02:55:58;100596.47;;;6.99;nan
53023;BME280;38913;44.338;11.206;2023-04-10T02:58:24;100602.28;;;6.78;nan
53023;BME280;38913;44.338;11.206;2023-04-10T03:00:50;100592.84;;;6.52;nan
53023;BME280;38913;44.338;11.206;2023-04-10T03:03:17;100609.09;;;6.87;nan
53023;BME280;38913;44.338;11.206;2023-04-10T03:05:43;100618.31;;;6.83;nan
53023;BME280;38913;44.338;11.206;2023-04-10T03:08:19;100590.94;;;6.37;nan
53023;BME280;38913;44.338;11.206;2023-04-10T03:10:46;100593.16;;;6.65;nan
53023;BME280;38913;44.338;11.206;2023-04-10T03:13:14;100596.41;;;6.68;nan
53023;BME280;38913;44.338;11.206;2023-04-10T03:15:40;100597.50;;;6.17;nan
53023;BME280;38913;44.338;11.206;2023-04-10T03:18:06;100594.19;;;6.48;nan
53023;BME280;38913;44.338;11.206;2023-04-10T03:20:32;100587.69;;;6.35;nan
53023;BME280;38913;44.338;11.206;2023-04-10T03:22:58;100599.38;;;6.64;nan
53023;BME280;38913;44.338;11.206;2023-04-10T03:25:24;100589.31;;;6.20;nan
53023;BME280;38913;44.338;11.206;2023-04-10T03:27:49;100560.38;;;5.88;nan
53023;BME280;38913;44.338;11.206;2023-04-10T03:30:15;100556.00;;;6.05;nan
53023;BME280;38913;44.338;11.206;2023-04-10T03:32:41;100563.38;;;6.10;nan
53023;BME280;38913;44.338;11.206;2023-04-10T03:35:08;100554.31;;;6.29;nan
53023;BME280;38913;44.338;11.206;2023-04-10T03:37:33;100569.00;;;6.38;nan
53023;BME280;38913;44.338;11.206;2023-04-10T03:39:58;100553.69;;;6.27;nan
53023;BME280;38913;44.338;11.206;2023-04-10T03:42:24;100569.88;;;6.31;nan
53023;BME280;38913;44.338;11.206;2023-04-10T03:44:49;100582.06;;;6.47;nan
53023;BME280;38913;44.338;11.206;2023-04-10T03:47:15;100555.66;;;5.75;nan
53023;BME280;38913;44.338;11.206;2023-04-10T03:49:40;100547.50;;;5.87;nan
53023;BME280;38913;44.338;11.206;2023-04-10T03:52:06;100547.78;;;5.92;nan
53023;BME280;38913;44.338;11.206;2023-04-10T03:54:31;100553.94;;;6.41;nan
53023;BME280;38913;44.338;11.206;2023-04-10T03:56:57;100569.06;;;6.22;nan
53023;BME280;38913;44.338;11.206;2023-04-10T03:59:22;100573.47;;;6.78;nan
53023;BME280;38913;44.338;11.206;2023-04-10T04:04:21;100602.81;;;7.05;nan
53023;BME280;38913;44.338;11.206;2023-04-10T04:06:46;100605.28;;;6.58;nan
53023;BME280;38913;44.338;11.206;2023-04-10T04:09:13;100556.63;;;5.57;nan
53023;BME280;38913;44.338;11.206;2023-04-10T04:11:38;100498.09;;;5.92;nan
53023;BME280;38913;44.338;11.206;2023-04-10T04:14:03;100552.59;;;6.61;nan
53023;BME280;38913;44.338;11.206;2023-04-10T04:16:29;100563.75;;;6.47;nan
53023;BME280;38913;44.338;11.206;2023-04-10T04:18:54;100573.06;;;6.49;nan
53023;BME280;38913;44.338;11.206;2023-04-10T04:21:20;100583.47;;;6.74;nan
53023;BME280;38913;44.338;11.206;2023-04-10T04:23:45;100569.97;;;6.46;nan
53023;BME280;38913;44.338;11.206;2023-04-10T04:26:10;100574.22;;;6.55;nan
53023;BME280;38913;44.338;11.206;2023-04-10T04:28:36;100595.44;;;6.60;nan
53023;BME280;38913;44.338;11.206;2023-04-10T04:31:01;100598.38;;;6.65;nan
53023;BME280;38913;44.338;11.206;2023-04-10T04:33:26;100587.84;;;6.34;nan
53023;BME280;38913;44.338;11.206;2023-04-10T04:35:52;100597.44;;;6.98;nan
53023;BME280;38913;44.338;11.206;2023-04-10T04:38:17;100594.03;;;6.41;nan
53023;BME280;38913;44.338;11.206;2023-04-10T04:40:44;100589.34;;;6.11;nan
53023;BME280;38913;44.338;11.206;2023-04-10T04:43:10;100594.09;;;6.08;nan
53023;BME280;38913;44.338;11.206;2023-04-10T04:45:35;100589.59;;;6.50;nan
53023;BME280;38913;44.338;11.206;2023-04-10T04:48:01;100610.50;;;6.66;nan
53023;BME280;38913;44.338;11.206;2023-04-10T04:50:26;100622.47;;;6.61;nan
53023;BME280;38913;44.338;11.206;2023-04-10T04:52:52;100620.03;;;6.51;nan
53023;BME280;38913;44.338;11.206;2023-04-10T04:55:17;100624.59;;;6.57;nan
53023;BME280;38913;44.338;11.206;2023-04-10T04:57:42;100639.66;;;6.47;nan
53023;BME280;38913;44.338;11.206;2023-04-10T05:00:08;100641.56;;;6.78;nan
53023;BME280;38913;44.338;11.206;2023-04-10T05:02:34;100651.38;;;6.84;nan
53023;BME280;38913;44.338;11.206;2023-04-10T05:04:59;100647.34;;;6.57;nan
53023;BME280;38913;44.338;11.206;2023-04-10T05:07:25;100654.34;;;6.73;nan
53023;BME280;38913;44.338;11.206;2023-04-10T05:09:51;100660.13;;;6.51;nan
53023;BME280;38913;44.338;11.206;2023-04-10T05:12:16;100656.78;;;6.74;nan
53023;BME280;38913;44.338;11.206;2023-04-10T05:14:42;100667.69;;;7.03;nan
53023;BME280;38913;44.338;11.206;2023-04-10T05:17:07;100667.72;;;6.86;nan
53023;BME280;38913;44.338;11.206;2023-04-10T05:19:32;100674.91;;;6.92;nan
53023;BME280;38913;44.338;11.206;2023-04-10T05:21:58;100680.53;;;7.21;nan
53023;BME280;38913;44.338;11.206;2023-04-10T05:24:23;100682.59;;;6.94;nan
53023;BME280;38913;44.338;11.206;2023-04-10T05:26:48;100684.88;;;7.05;nan
53023;BME280;38913;44.338;11.206;2023-04-10T05:29:14;100712.94;;;9.07;nan
53023;BME280;38913;44.338;11.206;2023-04-10T05:31:39;100729.78;;;10.45;nan
53023;BME280;38913;44.338;11.206;2023-04-10T05:34:05;100749.69;;;11.05;nan
53023;BME280;38913;44.338;11.206;2023-04-10T05:36:30;100745.88;;;11.21;nan
53023;BME280;38913;44.338;11.206;2023-04-10T05:38:56;100764.31;;;12.25;nan
53023;BME280;38913;44.338;11.206;2023-04-10T05:41:22;100767.19;;;12.37;nan
53023;BME280;38913;44.338;11.206;2023-04-10T05:43:47;100771.03;;;12.88;nan
53023;BME280;38913;44.338;11.206;2023-04-10T05:46:14;100775.84;;;13.12;nan
53023;BME280;38913;44.338;11.206;2023-04-10T05:48:39;100784.66;;;14.04;nan
53023;BME280;38913;44.338;11.206;2023-04-10T05:51:05;100798.25;;;14.46;nan
53023;BME280;38913;44.338;11.206;2023-04-10T05:53:31;100806.59;;;15.19;nan
53023;BME280;38913;44.338;11.206;2023-04-10T05:55:58;100818.41;;;14.15;nan
53023;BME280;38913;44.338;11.206;2023-04-10T05:58:25;100816.34;;;14.82;nan
53023;BME280;38913;44.338;11.206;2023-04-10T06:00:51;100821.81;;;15.99;nan
53023;BME280;38913;44.338;11.206;2023-04-10T06:03:17;100820.13;;;17.19;nan
53023;BME280;38913;44.338;11.206;2023-04-10T06:05:42;100829.47;;;17.45;nan
53023;BME280;38913;44.338;11.206;2023-04-10T06:08:07;100832.97;;;16.86;nan
53023;BME280;38913;44.338;11.206;2023-04-10T06:10:33;100827.81;;;14.75;nan
53023;BME280;38913;44.338;11.206;2023-04-10T06:12:58;100838.00;;;15.41;nan
53023;BME280;38913;44.338;11.206;2023-04-10T06:15:24;100850.00;;;15.81;nan
53023;BME280;38913;44.338;11.206;2023-04-10T06:17:49;100851.63;;;15.45;nan
53023;BME280;38913;44.338;11.206;2023-04-10T06:20:14;100842.34;;;17.24;nan
53023;BME280;38913;44.338;11.206;2023-04-10T06:22:40;100846.19;;;16.38;nan
53023;BME280;38913;44.338;11.206;2023-04-10T06:25:05;100846.84;;;17.36;nan
53023;BME280;38913;44.338;11.206;2023-04-10T06:27:32;100847.63;;;16.10;nan
53023;BME280;38913;44.338;11.206;2023-04-10T06:29:59;100847.31;;;17.74;nan
53023;BME280;38913;44.338;11.206;2023-04-10T06:32:24;100837.66;;;18.77;nan
53023;BME280;38913;44.338;11.206;2023-04-10T06:34:50;100845.09;;;19.54;nan
53023;BME280;38913;44.338;11.206;2023-04-10T06:37:15;100849.88;;;19.74;nan
53023;BME280;38913;44.338;11.206;2023-04-10T06:39:41;100849.06;;;18.09;nan
53023;BME280;38913;44.338;11.206;2023-04-10T06:42:06;100843.94;;;19.94;nan
53023;BME280;38913;44.338;11.206;2023-04-10T06:44:31;100839.72;;;21.02;nan
53023;BME280;38913;44.338;11.206;2023-04-10T06:46:57;100844.09;;;19.83;nan
53023;BME280;38913;44.338;11.206;2023-04-10T06:49:22;100846.22;;;18.79;nan
53023;BME280;38913;44.338;11.206;2023-04-10T06:51:48;100848.91;;;20.35;nan
53023;BME280;38913;44.338;11.206;2023-04-10T06:54:14;100840.34;;;21.78;nan
53023;BME280;38913;44.338;11.206;2023-04-10T06:56:39;100844.41;;;19.41;nan
53023;BME280;38913;44.338;11.206;2023-04-10T06:59:05;100841.69;;;20.74;nan
53023;BME280;38913;44.338;11.206;2023-04-10T07:01:30;100854.75;;;18.01;nan
53023;BME280;38913;44.338;11.206;2023-04-10T07:03:56;100830.94;;;19.31;nan
53023;BME280;38913;44.338;11.206;2023-04-10T07:06:21;100838.44;;;19.57;nan
53023;BME280;38913;44.338;11.206;2023-04-10T07:08:49;100838.09;;;21.49;nan
53023;BME280;38913;44.338;11.206;2023-04-10T07:11:15;100830.31;;;21.48;nan
53023;BME280;38913;44.338;11.206;2023-04-10T07:13:40;100826.13;;;22.92;nan
53023;BME280;38913;44.338;11.206;2023-04-10T07:16:07;100828.41;;;23.45;nan
53023;BME280;38913;44.338;11.206;2023-04-10T07:18:33;100821.81;;;24.12;nan
53023;BME280;38913;44.338;11.206;2023-04-10T07:21:12;100814.03;;;22.95;nan
53023;BME280;38913;44.338;11.206;2023-04-10T07:23:37;100821.66;;;23.48;nan
53023;BME280;38913;44.338;11.206;2023-04-10T07:26:03;100817.78;;;23.04;nan
53023;BME280;38913;44.338;11.206;2023-04-10T07:28:28;100808.38;;;24.42;nan
53023;BME280;38913;44.338;11.206;2023-04-10T07:30:53;100810.41;;;25.29;nan
53023;BME280;38913;44.338;11.206;2023-04-10T07:33:19;100811.19;;;25.73;nan
53023;BME280;38913;44.338;11.206;2023-04-10T07:35:45;100820.50;;;22.93;nan
53023;BME280;38913;44.338;11.206;2023-04-10T07:38:11;100814.09;;;23.95;nan
53023;BME280;38913;44.338;11.206;2023-04-10T07:40:37;100816.38;;;24.77;nan
53023;BME280;38913;44.338;11.206;2023-04-10T07:43:02;100809.25;;;26.45;nan
53023;BME280;38913;44.338;11.206;2023-04-10T07:45:28;100797.53;;;26.16;nan
53023;BME280;38913;44.338;11.206;2023-04-10T07:47:53;100803.41;;;27.13;nan
53023;BME280;38913;44.338;11.206;2023-04-10T07:50:19;100788.13;;;28.77;nan
53023;BME280;38913;44.338;11.206;2023-04-10T07:52:44;100782.69;;;29.62;nan
53023;BME280;38913;44.338;11.206;2023-04-10T07:55:10;100786.19;;;29.45;nan
53023;BME280;38913;44.338;11.206;2023-04-10T07:57:35;100786.28;;;29.13;nan
53023;BME280;38913;44.338;11.206;2023-04-10T08:00:01;100772.47;;;31.44;nan
53023;BME280;38913;44.338;11.206;2023-04-10T08:02:26;100764.59;;;31.64;nan
53023;BME280;38913;44.338;11.206;2023-04-10T08:04:52;100780.72;;;31.36;nan
53023;BME280;38913;44.338;11.206;2023-04-10T08:07:19;100790.44;;;30.16;nan
53023;BME280;38913;44.338;11.206;2023-04-10T08:09:46;100782.97;;;31.55;nan
53023;BME280;38913;44.338;11.206;2023-04-10T08:12:11;100788.97;;;30.97;nan
53023;BME280;38913;44.338;11.206;2023-04-10T08:14:37;100772.31;;;32.42;nan
53023;BME280;38913;44.338;11.206;2023-04-10T08:17:02;100789.22;;;31.89;nan
53023;BME280;38913;44.338;11.206;2023-04-10T08:19:28;100788.13;;;32.03;nan
53023;BME280;38913;44.338;11.206;2023-04-10T08:21:53;100788.13;;;32.03;nan
53023;BME280;38913;44.338;11.206;2023-04-10T08:24:18;100793.31;;;32.67;nan
53023;BME280;38913;44.338;11.206;2023-04-10T08:26:46;100788.41;;;32.47;nan
53023;BME280;38913;44.338;11.206;2023-04-10T08:29:12;100789.44;;;32.68;nan
53023;BME280;38913;44.338;11.206;2023-04-10T08:31:38;100789.00;;;32.53;nan
53023;BME280;38913;44.338;11.206;2023-04-10T08:34:03;100789.34;;;32.39;nan
53023;BME280;38913;44.338;11.206;2023-04-10T08:36:29;100795.94;;;33.86;nan
53023;BME280;38913;44.338;11.206;2023-04-10T08:38:56;100796.25;;;32.99;nan
53023;BME280;38913;44.338;11.206;2023-04-10T08:41:22;100788.88;;;34.13;nan
53023;BME280;38913;44.338;11.206;2023-04-10T08:43:47;100794.16;;;34.06;nan
53023;BME280;38913;44.338;11.206;2023-04-10T08:46:14;100794.75;;;33.14;nan
53023;BME280;38913;44.338;11.206;2023-04-10T08:49:02;100795.94;;;33.86;nan
53023;BME280;38913;44.338;11.206;2023-04-10T08:54:07;100791.97;;;34.12;nan
53023;BME280;38913;44.338;11.206;2023-04-10T08:56:36;100836.81;;;26.75;nan
53023;BME280;38913;44.338;11.206;2023-04-10T08:59:03;100848.47;;;24.04;nan
53023;BME280;38913;44.338;11.206;2023-04-10T09:01:29;100868.44;;;20.08;nan
53023;BME280;38913;44.338;11.206;2023-04-10T09:03:55;100846.03;;;22.13;nan
53023;BME280;38913;44.338;11.206;2023-04-10T09:06:21;100860.13;;;19.60;nan
53023;BME280;38913;44.338;11.206;2023-04-10T09:08:47;100856.75;;;19.92;nan
53023;BME280;38913;44.338;11.206;2023-04-10T09:11:13;100864.91;;;17.87;nan
53023;BME280;38913;44.338;11.206;2023-04-10T09:13:40;100852.50;;;18.22;nan
53023;BME280;38913;44.338;11.206;2023-04-10T09:16:07;100843.16;;;19.27;nan
53023;BME280;38913;44.338;11.206;2023-04-10T09:18:40;100858.69;;;18.56;nan
53023;BME280;38913;44.338;11.206;2023-04-10T09:21:11;100849.53;;;17.77;nan
53023;BME280;38913;44.338;11.206;2023-04-10T09:23:37;100854.09;;;18.23;nan
53023;BME280;38913;44.338;11.206;2023-04-10T09:26:25;100843.56;;;18.62;nan
53023;BME280;38913;44.338;11.206;2023-04-10T09:28:56;100841.09;;;17.97;nan
53023;BME280;38913;44.338;11.206;2023-04-10T09:31:30;100854.81;;;17.00;nan
53023;BME280;38913;44.338;11.206;2023-04-10T09:36:55;100849.88;;;15.95;nan
53023;BME280;38913;44.338;11.206;2023-04-10T09:39:21;100852.16;;;16.88;nan
53023;BME280;38913;44.338;11.206;2023-04-10T09:41:52;100853.56;;;15.75;nan
53023;BME280;38913;44.338;11.206;2023-04-10T09:44:28;100847.59;;;16.53;nan
53023;BME280;38913;44.338;11.206;2023-04-10T09:46:55;100844.75;;;16.78;nan
53023;BME280;38913;44.338;11.206;2023-04-10T09:49:21;100838.75;;;16.95;nan
53023;BME280;38913;44.338;11.206;2023-04-10T09:51:46;100842.56;;;16.87;nan
53023;BME280;38913;44.338;11.206;2023-04-10T09:54:13;100851.66;;;15.01;nan
53023;BME280;38913;44.338;11.206;2023-04-10T09:56:40;100848.19;;;15.26;nan
53023;BME280;38913;44.338;11.206;2023-04-10T09:59:08;100847.72;;;15.29;nan
53023;BME280;38913;44.338;11.206;2023-04-10T10:01:36;100832.00;;;15.09;nan
53023;BME280;38913;44.338;11.206;2023-04-10T10:04:03;100841.09;;;15.57;nan
53023;BME280;38913;44.338;11.206;2023-04-10T10:06:30;100828.56;;;16.25;nan
53023;BME280;38913;44.338;11.206;2023-04-10T10:09:00;100845.16;;;15.41;nan
53023;BME280;38913;44.338;11.206;2023-04-10T10:11:27;100828.34;;;16.15;nan
53023;BME280;38913;44.338;11.206;2023-04-10T10:13:53;100836.50;;;15.83;nan
53023;BME280;38913;44.338;11.206;2023-04-10T10:16:33;100833.22;;;15.50;nan
53023;BME280;38913;44.338;11.206;2023-04-10T10:21:50;100827.47;;;17.41;nan
53023;BME280;38913;44.338;11.206;2023-04-10T10:24:18;100827.75;;;17.27;nan
53023;BME280;38913;44.338;11.206;2023-04-10T10:26:46;100838.41;;;17.39;nan
53023;BME280;38913;44.338;11.206;2023-04-10T10:29:14;100826.88;;;17.91;nan
53023;BME280;38913;44.338;11.206;2023-04-10T10:31:41;100814.41;;;18.95;nan
53023;BME280;38913;44.338;11.206;2023-04-10T10:34:07;100813.22;;;19.47;nan
53023;BME280;38913;44.338;11.206;2023-04-10T10:36:36;100811.84;;;17.85;nan
53023;BME280;38913;44.338;11.206;2023-04-10T10:39:31;100808.41;;;17.73;nan
53023;BME280;38913;44.338;11.206;2023-04-10T10:42:07;100811.56;;;17.70;nan
53023;BME280;38913;44.338;11.206;2023-04-10T10:44:41;100809.13;;;17.68;nan
53023;BME280;38913;44.338;11.206;2023-04-10T10:47:32;100792.91;;;17.70;nan
53023;BME280;38913;44.338;11.206;2023-04-10T10:50:03;100804.59;;;17.98;nan
53023;BME280;38913;44.338;11.206;2023-04-10T10:58:08;100797.63;;;17.80;nan
53023;BME280;38913;44.338;11.206;2023-04-10T11:05:53;100791.72;;;17.95;nan
53023;BME280;38913;44.338;11.206;2023-04-10T11:11:06;100778.78;;;18.15;nan
53023;BME280;38913;44.338;11.206;2023-04-10T11:13:36;100767.25;;;16.63;nan
53023;BME280;38913;44.338;11.206;2023-04-10T11:16:04;100768.94;;;17.29;nan
53023;BME280;38913;44.338;11.206;2023-04-10T11:26:12;100770.72;;;17.52;nan
53023;BME280;38913;44.338;11.206;2023-04-10T11:28:38;100778.31;;;16.36;nan
53023;BME280;38913;44.338;11.206;2023-04-10T11:31:17;100771.75;;;17.10;nan
53023;BME280;38913;44.338;11.206;2023-04-10T11:34:03;100760.06;;;17.98;nan
53023;BME280;38913;44.338;11.206;2023-04-10T11:36:30;100759.22;;;17.22;nan
53023;BME280;38913;44.338;11.206;2023-04-10T11:41:31;100756.03;;;17.08;nan
53023;BME280;38913;44.338;11.206;2023-04-10T11:43:58;100755.06;;;17.27;nan
53023;BME280;38913;44.338;11.206;2023-04-10T11:46:23;100758.56;;;16.91;nan
53023;BME280;38913;44.338;11.206;2023-04-10T11:48:55;100778.94;;;15.95;nan
53023;BME280;38913;44.338;11.206;2023-04-10T11:51:20;100767.06;;;15.11;nan
53023;BME280;38913;44.338;11.206;2023-04-10T11:53:46;100746.22;;;16.73;nan
53023;BME280;38913;44.338;11.206;2023-04-10T11:56:15;100746.06;;;16.92;nan
53023;BME280;38913;44.338;11.206;2023-04-10T11:58:42;100735.03;;;16.05;nan
53023;BME280;38913;44.338;11.206;2023-04-10T12:01:07;100736.69;;;16.18;nan
53023;BME280;38913;44.338;11.206;2023-04-10T12:03:40;100748.22;;;15.69;nan
53023;BME280;38913;44.338;11.206;2023-04-10T12:06:13;100748.59;;;16.39;nan
53023;BME280;38913;44.338;11.206;2023-04-10T12:08:42;100740.97;;;16.19;nan
53023;BME280;38913;44.338;11.206;2023-04-10T12:11:22;100728.72;;;16.77;nan
53023;BME280;38913;44.338;11.206;2023-04-10T12:13:52;100728.72;;;16.41;nan
53023;BME280;38913;44.338;11.206;2023-04-10T12:16:18;100725.16;;;16.72;nan
53023;BME280;38913;44.338;11.206;2023-04-10T12:18:44;100720.41;;;16.74;nan
53023;BME280;38913;44.338;11.206;2023-04-10T12:21:09;100712.16;;;16.87;nan
53023;BME280;38913;44.338;11.206;2023-04-10T12:23:37;100706.53;;;17.36;nan
53023;BME280;38913;44.338;11.206;2023-04-10T12:26:11;100715.28;;;16.96;nan
53023;BME280;38913;44.338;11.206;2023-04-10T12:28:38;100734.31;;;15.67;nan
53023;BME280;38913;44.338;11.206;2023-04-10T12:31:04;100725.00;;;16.07;nan
53023;BME280;38913;44.338;11.206;2023-04-10T12:33:30;100723.75;;;15.79;nan
53023;BME280;38913;44.338;11.206;2023-04-10T12:35:56;100730.22;;;16.13;nan
53023;BME280;38913;44.338;11.206;2023-04-10T12:38:41;100727.41;;;16.08;nan
53023;BME280;38913;44.338;11.206;2023-04-10T12:41:08;100721.91;;;16.46;nan
53023;BME280;38913;44.338;11.206;2023-04-10T12:43:39;100714.84;;;16.75;nan
53023;BME280;38913;44.338;11.206;2023-04-10T12:46:22;100709.06;;;16.78;nan
53023;BME280;38913;44.338;11.206;2023-04-10T12:48:47;100702.97;;;16.30;nan
53023;BME280;38913;44.338;11.206;2023-04-10T12:51:13;100701.22;;;16.36;nan
53023;BME280;38913;44.338;11.206;2023-04-10T12:53:42;100700.31;;;15.87;nan
53023;BME280;38913;44.338;11.206;2023-04-10T12:56:09;100699.97;;;15.84;nan
53023;BME280;38913;44.338;11.206;2023-04-10T12:58:36;100686.28;;;15.99;nan
53023;BME280;38913;44.338;11.206;2023-04-10T13:01:07;100701.00;;;15.83;nan
53023;BME280;38913;44.338;11.206;2023-04-10T13:03:37;100693.69;;;15.97;nan
53023;BME280;38913;44.338;11.206;2023-04-10T13:06:04;100698.66;;;15.32;nan
53023;BME280;38913;44.338;11.206;2023-04-10T13:08:31;100694.94;;;15.33;nan
53023;BME280;38913;44.338;11.206;2023-04-10T13:10:59;100692.16;;;15.58;nan
53023;BME280;38913;44.338;11.206;2023-04-10T13:13:28;100684.31;;;15.94;nan
53023;BME280;38913;44.338;11.206;2023-04-10T13:15:55;100687.81;;;15.64;nan
53023;BME280;38913;44.338;11.206;2023-04-10T13:18:20;100685.13;;;15.95;nan
53023;BME280;38913;44.338;11.206;2023-04-10T13:20:46;100681.22;;;16.21;nan
53023;BME280;38913;44.338;11.206;2023-04-10T13:23:11;100674.38;;;16.25;nan
53023;BME280;38913;44.338;11.206;2023-04-10T13:25:38;100669.78;;;16.09;nan
53023;BME280;38913;44.338;11.206;2023-04-10T13:28:04;100677.03;;;16.25;nan
53023;BME280;38913;44.338;11.206;2023-04-10T13:30:34;100673.25;;;16.21;nan
53023;BME280;38913;44.338;11.206;2023-04-10T13:33:00;100673.13;;;16.04;nan
53023;BME280;38913;44.338;11.206;2023-04-10T13:35:25;100680.00;;;15.81;nan
53023;BME280;38913;44.338;11.206;2023-04-10T13:37:51;100671.88;;;15.76;nan
53023;BME280;38913;44.338;11.206;2023-04-10T13:40:19;100661.66;;;15.92;nan
53023;BME280;38913;44.338;11.206;2023-04-10T13:42:45;100668.94;;;15.96;nan
53023;BME280;38913;44.338;11.206;2023-04-10T13:45:10;100666.75;;;15.51;nan
53023;BME280;38913;44.338;11.206;2023-04-10T13:47:36;100666.25;;;15.42;nan
53023;BME280;38913;44.338;11.206;2023-04-10T13:50:01;100669.16;;;15.21;nan
53023;BME280;38913;44.338;11.206;2023-04-10T13:52:26;100673.03;;;15.38;nan
53023;BME280;38913;44.338;11.206;2023-04-10T13:54:52;100666.09;;;15.67;nan